createdAt,value
2018-12-23T00:01:23.592Z,84.38
2018-12-23T00:03:54.483Z,83.89
2018-12-23T00:06:25.033Z,83.87
2018-12-23T00:08:56.064Z,83.71
2018-12-23T00:11:26.619Z,82.56
2018-12-23T00:13:57.253Z,81.81
2018-12-23T00:16:27.968Z,81.77
2018-12-23T00:18:58.240Z,81.54
2018-12-23T00:21:28.981Z,80.71
2018-12-23T00:23:59.552Z,80.65
2018-12-23T00:26:30.585Z,80.40
2018-12-23T00:29:01.275Z,80.76
2018-12-23T00:31:31.963Z,80.14
2018-12-23T00:34:02.560Z,80.54
2018-12-23T00:36:33.316Z,80.71
2018-12-23T00:39:04.958Z,81.61
2018-12-23T00:41:36.684Z,81.59
2018-12-23T00:44:08.717Z,82.49
2018-12-23T00:46:39.188Z,82.54
2018-12-23T00:49:09.917Z,83.72
2018-12-23T00:51:40.462Z,83.76
2018-12-23T00:54:11.194Z,84.10
2018-12-23T00:56:41.919Z,84.38
2018-12-23T00:59:12.634Z,83.88
2018-12-23T01:01:43.525Z,83.79
2018-12-23T01:04:14.681Z,83.57
2018-12-23T01:06:45.423Z,84.04
2018-12-23T01:09:16.004Z,83.60
2018-12-23T01:11:46.818Z,83.93
2018-12-23T01:14:17.504Z,84.06
2018-12-23T01:16:48.148Z,84.14
2018-12-23T01:19:18.812Z,84.24
2018-12-23T01:21:49.499Z,84.01
2018-12-23T01:24:20.107Z,83.48
2018-12-23T01:26:50.838Z,82.85
2018-12-23T01:29:21.556Z,83.18
2018-12-23T01:31:52.372Z,82.63
2018-12-23T01:34:24.156Z,81.70
2018-12-23T01:36:54.943Z,82.37
2018-12-23T01:39:26.104Z,81.66
2018-12-23T01:41:56.725Z,81.38
2018-12-23T01:44:27.479Z,81.63
2018-12-23T01:46:58.552Z,81.73
2018-12-23T01:49:29.039Z,81.39
2018-12-23T01:51:59.972Z,81.80
2018-12-23T01:54:30.673Z,81.88
2018-12-23T01:57:01.338Z,81.25
2018-12-23T01:59:32.055Z,81.33
2018-12-23T02:02:02.791Z,81.02
2018-12-23T02:04:33.580Z,81.50
2018-12-23T02:07:04.250Z,81.26
2018-12-23T02:09:35.204Z,80.53
2018-12-23T02:12:05.862Z,80.81
2018-12-23T02:14:36.519Z,81.07
2018-12-23T02:17:07.232Z,81.58
2018-12-23T02:19:37.883Z,82.07
2018-12-23T02:22:08.690Z,82.58
2018-12-23T02:24:39.346Z,83.62
2018-12-23T02:27:10.159Z,83.55
2018-12-23T02:29:40.659Z,83.51
2018-12-23T02:32:11.509Z,84.35
2018-12-23T02:34:42.119Z,83.98
2018-12-23T02:37:13.009Z,84.70
2018-12-23T02:39:43.604Z,85.42
2018-12-23T02:42:14.342Z,85.59
2018-12-23T02:44:44.797Z,85.96
2018-12-23T02:47:15.584Z,85.80
2018-12-23T02:49:45.959Z,85.65
2018-12-23T02:52:16.814Z,85.91
2018-12-23T02:54:48.476Z,85.78
2018-12-23T02:57:19.258Z,86.09
2018-12-23T02:59:49.959Z,85.92
2018-12-23T03:02:21.776Z,86.65
2018-12-23T03:04:52.450Z,85.51
2018-12-23T03:07:23.139Z,85.62
2018-12-23T03:09:53.797Z,87.96
2018-12-23T03:12:24.644Z,87.55
2018-12-23T03:14:55.675Z,88.79
2018-12-23T03:17:26.845Z,89.25
2018-12-23T03:19:57.960Z,90.07
2018-12-23T03:22:28.861Z,89.44
2018-12-23T03:24:59.514Z,88.96
2018-12-23T03:27:30.206Z,88.19
2018-12-23T03:30:00.624Z,87.97
2018-12-23T03:32:31.541Z,87.29
2018-12-23T03:35:02.149Z,86.57
2018-12-23T03:37:32.662Z,85.55
2018-12-23T03:40:03.197Z,84.89
2018-12-23T03:42:33.714Z,84.51
2018-12-23T03:45:04.639Z,84.09
2018-12-23T03:47:35.451Z,83.50
2018-12-23T03:50:07.002Z,82.87
2018-12-23T03:52:37.657Z,82.10
2018-12-23T03:55:08.554Z,81.61
2018-12-23T03:57:39.172Z,80.97
2018-12-23T04:00:10.181Z,80.16
2018-12-23T04:02:40.788Z,79.41
2018-12-23T04:05:11.504Z,79.23
2018-12-23T04:07:42.259Z,78.72
2018-12-23T04:10:12.723Z,78.27
2018-12-23T04:12:43.316Z,78.35
2018-12-23T04:15:14.114Z,79.23
2018-12-23T04:17:45.570Z,79.24
2018-12-23T04:20:16.677Z,80.46
2018-12-23T04:22:47.897Z,80.30
2018-12-23T04:25:18.741Z,81.03
2018-12-23T04:27:49.346Z,81.11
2018-12-23T04:30:19.959Z,81.97
2018-12-23T04:32:50.755Z,82.15
2018-12-23T04:35:21.567Z,82.96
2018-12-23T04:37:52.526Z,82.75
2018-12-23T04:40:23.461Z,82.58
2018-12-23T04:42:54.379Z,82.33
2018-12-23T04:45:25.016Z,81.67
2018-12-23T04:47:55.868Z,80.91
2018-12-23T04:50:26.667Z,80.29
2018-12-23T04:52:57.409Z,79.38
2018-12-23T04:55:28.162Z,79.63
2018-12-23T04:57:58.868Z,79.23
2018-12-23T05:00:29.719Z,78.92
2018-12-23T05:03:00.676Z,78.72
2018-12-23T05:05:31.246Z,78.68
2018-12-23T05:08:02.043Z,78.26
2018-12-23T05:10:32.938Z,78.77
2018-12-23T05:13:03.611Z,78.56
2018-12-23T05:15:34.284Z,78.28
2018-12-23T05:18:04.879Z,78.85
2018-12-23T05:20:35.434Z,78.66
2018-12-23T05:23:06.113Z,79.07
2018-12-23T05:25:36.878Z,78.63
2018-12-23T05:28:07.655Z,78.94
2018-12-23T05:30:38.304Z,78.52
2018-12-23T05:33:09.084Z,78.49
2018-12-23T05:35:39.484Z,78.65
2018-12-23T05:38:10.341Z,78.39
2018-12-23T05:40:41.170Z,78.69
2018-12-23T05:43:11.857Z,78.34
2018-12-23T05:45:42.359Z,78.35
2018-12-23T05:48:12.956Z,78.28
2018-12-23T05:50:43.715Z,77.90
2018-12-23T05:53:14.514Z,78.21
2018-12-23T05:55:43.760Z,78.78
2018-12-23T05:58:14.523Z,78.66
2018-12-23T06:00:45.091Z,78.70
2018-12-23T06:03:15.632Z,78.54
2018-12-23T06:05:46.306Z,78.68
2018-12-23T06:08:16.730Z,78.80
2018-12-23T06:10:47.269Z,78.76
2018-12-23T06:13:17.908Z,78.47
2018-12-23T06:15:48.427Z,78.61
2018-12-23T06:18:19.153Z,78.87
2018-12-23T06:20:49.859Z,78.44
2018-12-23T06:23:20.413Z,78.00
2018-12-23T06:25:51.242Z,77.95
2018-12-23T06:28:21.703Z,77.49
2018-12-23T06:30:52.216Z,77.32
2018-12-23T06:33:22.702Z,77.91
2018-12-23T06:35:53.454Z,78.28
2018-12-23T06:38:24.072Z,77.78
2018-12-23T06:40:54.844Z,77.76
2018-12-23T06:43:25.434Z,77.77
2018-12-23T06:45:56.300Z,77.60
2018-12-23T06:48:27.040Z,76.97
2018-12-23T06:50:57.826Z,77.59
2018-12-23T06:53:28.650Z,77.30
2018-12-23T06:55:59.280Z,77.23
2018-12-23T06:58:30.348Z,76.74
2018-12-23T07:01:01.128Z,77.44
2018-12-23T07:03:31.888Z,77.82
2018-12-23T07:06:02.343Z,77.59
2018-12-23T07:08:32.900Z,77.57
2018-12-23T07:11:03.514Z,77.48
2018-12-23T07:13:34.339Z,76.89
2018-12-23T07:16:04.950Z,76.58
2018-12-23T07:18:35.831Z,75.62
2018-12-23T07:21:06.726Z,75.63
2018-12-23T07:23:37.596Z,75.56
2018-12-23T07:26:09.261Z,75.12
2018-12-23T07:28:40.156Z,74.71
2018-12-23T07:31:10.971Z,73.70
2018-12-23T07:33:41.671Z,73.52
2018-12-23T07:36:12.302Z,73.38
2018-12-23T07:38:42.977Z,72.80
2018-12-23T07:41:13.834Z,72.94
2018-12-23T07:43:44.558Z,72.79
2018-12-23T07:46:15.563Z,71.97
2018-12-23T07:48:46.330Z,71.63
2018-12-23T07:51:17.148Z,71.53
2018-12-23T07:53:48.066Z,71.45
2018-12-23T07:56:18.832Z,71.18
2018-12-23T07:58:49.558Z,72.20
2018-12-23T08:01:20.216Z,71.70
2018-12-23T08:03:51.055Z,70.85
2018-12-23T08:06:21.937Z,69.02
2018-12-23T08:08:52.908Z,68.66
2018-12-23T08:11:23.669Z,67.33
2018-12-23T08:13:54.765Z,66.98
2018-12-23T08:16:26.460Z,65.93
2018-12-23T08:18:57.200Z,64.15
2018-12-23T08:21:28.812Z,62.44
2018-12-23T08:23:59.403Z,62.00
2018-12-23T08:26:29.719Z,61.28
2018-12-23T08:29:00.332Z,60.24
2018-12-23T08:31:30.875Z,60.35
2018-12-23T08:34:01.297Z,60.14
2018-12-23T08:36:31.758Z,61.21
2018-12-23T08:39:02.431Z,60.60
2018-12-23T08:41:33.136Z,58.85
2018-12-23T08:44:03.868Z,59.03
2018-12-23T08:46:39.163Z,57.94
2018-12-23T08:49:06.974Z,57.45
2018-12-23T08:51:38.507Z,56.75
2018-12-23T08:54:08.950Z,57.37
2018-12-23T08:56:39.471Z,56.23
2018-12-23T08:59:09.881Z,56.71
2018-12-23T09:01:40.078Z,56.82
2018-12-23T09:04:10.398Z,56.49
2018-12-23T09:06:40.563Z,58.06
2018-12-23T09:09:10.864Z,58.85
2018-12-23T09:11:42.898Z,60.12
2018-12-23T09:14:12.996Z,59.66
2018-12-23T09:16:43.618Z,60.28
2018-12-23T09:19:13.857Z,63.19
2018-12-23T09:21:44.225Z,63.61
2018-12-23T09:24:14.350Z,64.39
2018-12-23T09:26:45.037Z,64.22
2018-12-23T09:29:15.411Z,64.50
2018-12-23T09:31:45.678Z,65.91
2018-12-23T09:34:16.498Z,66.96
2018-12-23T09:36:47.826Z,68.06
2018-12-23T09:39:18.800Z,67.73
2018-12-23T09:41:49.676Z,66.71
2018-12-23T09:44:20.074Z,67.60
2018-12-23T09:46:50.643Z,67.55
2018-12-23T09:49:21.355Z,67.18
2018-12-23T09:51:51.659Z,65.08
2018-12-23T09:54:22.112Z,64.34
2018-12-23T09:56:53.156Z,63.77
2018-12-23T09:59:23.850Z,62.70
2018-12-23T10:01:53.847Z,62.48
2018-12-23T10:04:24.531Z,62.22
2018-12-23T10:06:55.082Z,61.98
2018-12-23T10:09:25.433Z,62.23
2018-12-23T10:11:56.342Z,61.70
2018-12-23T10:14:27.124Z,63.28
2018-12-23T10:16:57.733Z,63.54
2018-12-23T10:19:28.274Z,65.73
2018-12-23T10:21:58.902Z,66.78
2018-12-23T10:24:29.631Z,67.61
2018-12-23T10:27:00.134Z,66.84
2018-12-23T10:29:30.795Z,68.23
2018-12-23T10:32:01.247Z,68.03
2018-12-23T10:34:33.178Z,68.80
2018-12-23T10:37:03.866Z,67.19
2018-12-23T10:39:34.953Z,67.67
2018-12-23T10:42:05.436Z,66.61
2018-12-23T10:44:35.726Z,66.63
2018-12-23T10:47:06.107Z,64.75
2018-12-23T10:49:36.532Z,64.48
2018-12-23T10:52:06.537Z,61.16
2018-12-23T10:54:36.879Z,60.05
2018-12-23T10:57:07.223Z,59.59
2018-12-23T10:59:37.859Z,59.36
2018-12-23T11:02:13.626Z,58.45
2018-12-23T11:04:41.119Z,58.72
2018-12-23T11:07:11.531Z,61.02
2018-12-23T11:09:41.984Z,60.07
2018-12-23T11:12:12.311Z,60.33
2018-12-23T11:14:42.874Z,60.96
2018-12-23T11:17:13.271Z,60.82
2018-12-23T11:19:43.605Z,61.02
2018-12-23T11:22:14.038Z,61.20
2018-12-23T11:24:44.490Z,62.16
2018-12-23T11:27:14.974Z,61.56
2018-12-23T11:29:45.171Z,60.43
2018-12-23T11:32:15.299Z,59.35
2018-12-23T11:34:45.597Z,59.29
2018-12-23T11:37:16.018Z,58.87
2018-12-23T11:39:46.539Z,60.10
2018-12-23T11:42:16.905Z,60.08
2018-12-23T11:44:47.302Z,59.16
2018-12-23T11:47:17.662Z,59.01
2018-12-23T11:49:48.056Z,58.24
2018-12-23T11:52:18.627Z,57.22
2018-12-23T11:54:48.974Z,59.15
2018-12-23T11:57:19.163Z,60.00
2018-12-23T11:59:49.596Z,59.19
2018-12-23T12:02:19.890Z,57.78
2018-12-23T12:04:50.471Z,58.34
2018-12-23T12:07:20.704Z,57.59
2018-12-23T12:09:51.252Z,57.19
2018-12-23T12:12:21.467Z,58.62
2018-12-23T12:14:51.728Z,59.95
2018-12-23T12:17:22.371Z,60.31
2018-12-23T12:19:53.147Z,61.07
2018-12-23T12:22:23.666Z,61.89
2018-12-23T12:24:54.382Z,61.48
2018-12-23T12:27:25.003Z,62.05
2018-12-23T12:29:55.777Z,61.57
2018-12-23T12:32:26.523Z,61.36
2018-12-23T12:34:59.182Z,61.62
2018-12-23T12:37:30.306Z,60.82
2018-12-23T12:40:02.042Z,60.35
2018-12-23T12:42:32.595Z,60.17
2018-12-23T12:45:03.325Z,60.22
2018-12-23T12:47:34.100Z,61.51
2018-12-23T12:50:04.754Z,61.33
2018-12-23T12:52:35.287Z,62.25
2018-12-23T12:55:05.958Z,61.55
2018-12-23T12:57:36.426Z,61.53
2018-12-23T13:00:08.173Z,62.17
2018-12-23T13:02:38.997Z,61.88
2018-12-23T13:05:09.848Z,62.93
2018-12-23T13:07:40.990Z,64.00
2018-12-23T13:10:11.705Z,64.65
2018-12-23T13:12:42.287Z,65.01
2018-12-23T13:15:13.300Z,64.86
2018-12-23T13:17:44.032Z,65.80
2018-12-23T13:20:14.878Z,65.34
2018-12-23T13:22:45.810Z,65.60
2018-12-23T13:25:16.749Z,65.78
2018-12-23T13:27:47.707Z,65.53
2018-12-23T13:30:18.418Z,65.52
2018-12-23T13:32:49.080Z,64.21
2018-12-23T13:35:19.865Z,64.42
2018-12-23T13:37:50.112Z,64.08
2018-12-23T13:40:35.516Z,64.39
2018-12-23T13:43:13.419Z,64.35
2018-12-23T13:46:03.939Z,65.06
2018-12-23T13:48:45.018Z,65.47
2018-12-23T13:51:26.476Z,65.00
2018-12-23T13:54:43.206Z,65.27
2018-12-23T13:57:31.336Z,65.33
2018-12-23T14:01:10.571Z,65.43
2018-12-23T14:04:52.277Z,64.87
2018-12-23T14:09:38.192Z,65.28
2018-12-23T14:12:08.815Z,66.02
2018-12-23T14:14:39.452Z,66.06
2018-12-23T14:17:10.178Z,66.07
2018-12-23T14:19:40.775Z,65.87
2018-12-23T14:22:11.571Z,66.65
2018-12-23T14:24:42.318Z,66.42
2018-12-23T14:27:12.917Z,66.54
2018-12-23T14:29:43.674Z,66.70
2018-12-23T14:32:14.380Z,67.03
2018-12-23T14:34:45.252Z,66.86
2018-12-23T14:37:15.799Z,66.89
2018-12-23T14:39:47.366Z,67.10
2018-12-23T14:42:18.123Z,67.20
2018-12-23T14:44:48.852Z,67.64
2018-12-23T14:47:19.630Z,67.89
2018-12-23T14:49:50.503Z,67.74
2018-12-23T14:52:22.260Z,67.74
2018-12-23T14:54:53.195Z,67.44
2018-12-23T14:57:23.639Z,67.36
2018-12-23T14:59:54.223Z,67.05
2018-12-23T15:02:24.644Z,66.83
2018-12-23T15:04:55.157Z,66.91
2018-12-23T15:07:25.967Z,66.99
2018-12-23T15:09:56.631Z,66.91
2018-12-23T15:12:27.334Z,66.91
2018-12-23T15:14:58.134Z,67.39
2018-12-23T15:17:28.747Z,67.34
2018-12-23T15:19:59.510Z,67.39
2018-12-23T15:22:29.754Z,68.33
2018-12-23T15:25:00.316Z,68.40
2018-12-23T15:27:31.007Z,68.25
2018-12-23T15:30:01.599Z,68.71
2018-12-23T15:32:32.318Z,68.10
2018-12-23T15:35:02.735Z,68.63
2018-12-23T15:37:33.276Z,68.45
2018-12-23T15:40:04.353Z,68.12
2018-12-23T15:42:34.951Z,67.62
2018-12-23T15:45:05.628Z,67.79
2018-12-23T15:47:35.978Z,67.09
2018-12-23T15:50:06.876Z,67.55
2018-12-23T15:52:37.246Z,68.08
2018-12-23T15:55:07.588Z,67.58
2018-12-23T15:57:38.175Z,67.56
2018-12-23T16:00:09.547Z,67.42
2018-12-23T16:02:40.050Z,67.23
2018-12-23T16:05:10.660Z,67.22
2018-12-23T16:07:41.443Z,67.24
2018-12-23T16:10:12.307Z,67.01
2018-12-23T16:12:42.897Z,67.29
2018-12-23T16:15:14.734Z,67.39
2018-12-23T16:17:45.147Z,67.42
2018-12-23T16:20:16.694Z,66.77
2018-12-23T16:22:47.430Z,66.92
2018-12-23T16:25:18.200Z,66.45
2018-12-23T16:27:48.837Z,66.26
2018-12-23T16:30:19.350Z,65.99
2018-12-23T16:32:49.853Z,65.38
2018-12-23T16:35:20.322Z,65.53
2018-12-23T16:37:50.793Z,64.81
2018-12-23T16:40:21.438Z,64.24
2018-12-23T16:42:51.829Z,64.89
2018-12-23T16:45:23.357Z,64.65
2018-12-23T16:47:53.890Z,64.56
2018-12-23T16:50:24.562Z,64.76
2018-12-23T16:52:54.855Z,63.80
2018-12-23T16:55:25.270Z,64.29
2018-12-23T16:57:56.576Z,64.12
2018-12-23T17:00:27.327Z,64.38
2018-12-23T17:02:57.873Z,64.80
2018-12-23T17:05:28.196Z,65.02
2018-12-23T17:07:58.946Z,65.45
2018-12-23T17:10:29.759Z,65.94
2018-12-23T17:13:00.411Z,65.82
2018-12-23T17:15:31.483Z,66.23
2018-12-23T17:18:02.067Z,66.83
2018-12-23T17:20:32.717Z,66.99
2018-12-23T17:23:03.154Z,67.09
2018-12-23T17:25:33.798Z,67.91
2018-12-23T17:28:04.325Z,67.46
2018-12-23T17:30:34.862Z,66.89
2018-12-23T17:33:05.151Z,66.78
2018-12-23T17:35:35.770Z,67.31
2018-12-23T17:38:06.547Z,67.11
2018-12-23T17:40:37.297Z,67.71
2018-12-23T17:43:08.008Z,67.11
2018-12-23T17:45:38.447Z,67.84
2018-12-23T17:48:08.876Z,67.87
2018-12-23T17:50:39.462Z,67.16
2018-12-23T17:53:10.099Z,67.71
2018-12-23T17:55:40.679Z,68.32
2018-12-23T17:58:10.991Z,68.13
2018-12-23T18:00:41.590Z,68.31
2018-12-23T18:03:12.408Z,68.59
2018-12-23T18:05:42.948Z,68.10
2018-12-23T18:08:13.463Z,68.35
2018-12-23T18:10:44.066Z,68.40
2018-12-23T18:13:14.362Z,68.57
2018-12-23T18:15:45.131Z,68.83
2018-12-23T18:18:15.931Z,68.16
2018-12-23T18:20:46.438Z,68.87
2018-12-23T18:23:16.835Z,68.85
2018-12-23T18:25:47.238Z,68.89
2018-12-23T18:28:17.569Z,68.50
2018-12-23T18:30:48.079Z,68.63
2018-12-23T18:33:18.807Z,68.30
2018-12-23T18:35:49.414Z,68.59
2018-12-23T18:38:20.137Z,68.82
2018-12-23T18:40:50.843Z,68.71
2018-12-23T18:43:21.540Z,68.48
2018-12-23T18:45:52.332Z,68.45
2018-12-23T18:48:23.183Z,68.67
2018-12-23T18:50:53.889Z,68.82
2018-12-23T18:53:24.558Z,68.12
2018-12-23T18:55:55.348Z,67.77
2018-12-23T18:58:26.179Z,67.83
2018-12-23T19:00:59.945Z,67.91
2018-12-23T19:03:30.421Z,67.83
2018-12-23T19:06:01.418Z,67.61
2018-12-23T19:08:46.932Z,67.62
2018-12-23T19:11:26.987Z,67.19
2018-12-23T19:14:24.266Z,67.42
2018-12-23T19:19:15.527Z,67.43
2018-12-23T19:21:56.959Z,67.95
2018-12-23T19:25:45.034Z,67.98
2018-12-23T19:28:30.590Z,67.35
2018-12-23T19:31:11.912Z,67.26
2018-12-23T19:33:57.259Z,66.78
2018-12-23T19:36:44.421Z,66.74
2018-12-23T19:41:27.319Z,66.95
2018-12-23T19:44:05.731Z,67.41
2018-12-23T19:47:49.787Z,68.13
2018-12-23T19:50:30.100Z,69.32
2018-12-23T19:54:09.254Z,69.97
2018-12-23T19:58:55.646Z,71.44
2018-12-23T20:01:35.846Z,73.32
2018-12-23T20:04:25.769Z,74.01
2018-12-23T20:08:17.113Z,74.77
2018-12-23T20:10:59.234Z,75.40
2018-12-23T20:13:44.677Z,76.71
2018-12-23T20:16:30.975Z,76.14
2018-12-23T20:19:16.676Z,76.10
2018-12-23T20:22:01.804Z,76.96
2018-12-23T20:25:53.595Z,77.08
2018-12-23T20:28:37.463Z,77.29
2018-12-23T20:31:23.604Z,77.07
2018-12-23T20:36:09.961Z,78.37
2018-12-23T20:40:50.771Z,78.59
2018-12-23T20:44:32.176Z,80.24
2018-12-23T20:47:29.021Z,79.54
2018-12-23T20:51:17.988Z,79.49
2018-12-23T20:54:01.327Z,80.10
2018-12-23T20:57:46.973Z,80.10
2018-12-23T21:01:30.861Z,79.53
2018-12-23T21:04:16.981Z,78.98
2018-12-23T21:08:03.764Z,79.33
2018-12-23T21:10:48.011Z,78.73
2018-12-23T21:14:28.555Z,78.69
2018-12-23T21:17:24.579Z,78.02
2018-12-23T21:20:12.387Z,78.66
2018-12-23T21:22:59.834Z,78.41
2018-12-23T21:26:10.033Z,77.77
2018-12-23T21:29:03.904Z,78.86
2018-12-23T21:32:47.834Z,79.47
2018-12-23T21:35:31.571Z,78.89
2018-12-23T21:38:44.927Z,79.08
2018-12-23T21:41:26.122Z,79.16
2018-12-23T21:46:14.953Z,78.52
2018-12-23T21:49:08.279Z,78.66
2018-12-23T21:52:58.461Z,79.38
2018-12-23T21:55:56.406Z,80.15
2018-12-23T21:58:46.130Z,79.97
2018-12-23T22:02:27.378Z,80.23
2018-12-23T22:05:21.522Z,80.51
2018-12-23T22:08:20.748Z,79.91
2018-12-23T22:12:06.684Z,79.83
2018-12-23T22:14:37.410Z,79.42
2018-12-23T22:17:42.999Z,79.79
2018-12-23T22:20:14.324Z,79.66
2018-12-23T22:22:45.687Z,79.36
2018-12-23T22:25:17.081Z,79.08
2018-12-23T22:27:48.576Z,78.83
2018-12-23T22:30:20.113Z,78.78
2018-12-23T22:32:51.331Z,78.97
2018-12-23T22:35:22.660Z,79.09
2018-12-23T22:37:53.979Z,78.71
2018-12-23T22:40:25.357Z,78.41
2018-12-23T22:42:56.670Z,78.28
2018-12-23T22:45:27.885Z,78.10
2018-12-23T22:47:59.205Z,78.25
2018-12-23T22:50:30.414Z,78.08
2018-12-23T22:53:01.615Z,77.94
2018-12-23T22:55:32.783Z,78.12
2018-12-23T22:58:04.066Z,78.09
2018-12-23T23:00:35.491Z,78.22
2018-12-23T23:03:09.260Z,78.68
2018-12-23T23:05:40.028Z,78.88
2018-12-23T23:08:11.778Z,78.85
2018-12-23T23:10:43.573Z,78.66
2018-12-23T23:13:18.699Z,78.45
2018-12-23T23:15:47.975Z,78.53
2018-12-23T23:18:20.592Z,78.83
2018-12-23T23:20:51.918Z,78.51
2018-12-23T23:23:23.479Z,78.27
2018-12-23T23:25:54.602Z,78.17
2018-12-23T23:28:26.227Z,78.23
2018-12-23T23:30:57.479Z,78.36
2018-12-23T23:33:28.808Z,78.76
2018-12-23T23:36:00.181Z,78.78
2018-12-23T23:38:31.261Z,78.99
2018-12-23T23:41:02.675Z,78.87
2018-12-23T23:43:34.071Z,79.05
2018-12-23T23:46:05.480Z,79.77
2018-12-23T23:48:36.637Z,79.50
2018-12-23T23:51:07.897Z,79.56
2018-12-23T23:53:39.247Z,79.89
2018-12-23T23:56:10.775Z,79.23
2018-12-23T23:58:42.181Z,78.62
